Terminal Aerodrome Forecast
Issued by NWS

Home | Current Version | Previous Version | Text Only | Print | Product List | Glossary On
Versions: 1 2 3 4 5 6 7 8 9 10 11 12 13 14
675
FTUS46 KEKA 270521
TAFUKI
TAF
KUKI 270521Z 2706/2806 36005KT P6SM SKC
     FM271100 17004KT P6SM SCT012
     FM271700 VRB03KT P6SM SKC
     FM280000 33008KT P6SM SKC=

USA.gov is the U.S. government's official web portal to all federal, state and local government web resources and services.